FQMA/MPM METAR and TAF weather

Enter ICAO airport designator
Station Type Date Time Source
FQMA METAR 2019/02/23 03:00 UTC NOAA

FQMA 230300Z 35004KT 9999 BKN020 24/22 Q1013 NOSIG


Station Type Date Time Source
FQMA Decoded METAR 2019/02/23 03:00 UTC NOAA

Maputo / Mavalane, Mozambique (FQMA) 25-55S 032-34E 44M
Feb 22, 2019 - 10:00 PM EST / 2019.02.23 0300 UTC
Wind: from the N (350 degrees) at 5 MPH (4 KT):0
Visibility: greater than 7 mile(s):0
Sky conditions: mostly cloudy
Temperature: 75 F (24 C)
Dew Point: 71 F (22 C)
Relative Humidity: 88%
Pressure (altimeter): 29.91 in. Hg (1013 hPa)
ob: FQMA 230300Z 35004KT 9999 BKN020 24/22 Q1013 NOSIG
cycle: 3

Station Type Date Time Source
FQMA TAF 2019/02/22 18:03 UTC NOAA

TAF FQMA 221600Z 2218/2324 09008KT 9999 SCT020 TX35/2313Z TN24/2303Z
BECMG 2300/2302 35008KT
BECMG 2312/2314 09010KT
BECMG 2316/2318 09012G24KT BKN020 FEW025CB PROB30
TEMPO 2318/2324 4000 TSRA BKN015


Example: see airport list